createdAt,value
2022-11-29T08:24:01.242Z,99129.78
2022-11-29T08:25:32.661Z,99131.22
2022-11-29T08:27:04.406Z,99124.63
2022-11-29T08:28:35.918Z,99120.31
2022-11-29T08:30:07.564Z,99119.50
2022-11-29T08:31:39.021Z,99118.81
2022-11-29T08:33:10.523Z,99123.56
2022-11-29T08:34:41.926Z,99127.53
2022-11-29T08:36:14.284Z,99119.44
2022-11-29T08:37:45.686Z,99118.94
2022-11-29T08:39:17.140Z,99119.28
2022-11-29T08:40:48.533Z,99116.22
2022-11-29T08:42:19.924Z,99117.72
2022-11-29T08:43:51.326Z,99120.88
2022-11-29T08:45:23.204Z,99113.31
2022-11-29T08:46:55.225Z,99120.63
2022-11-29T08:48:26.699Z,99112.78
2022-11-29T08:49:58.125Z,99123.22
2022-11-29T08:51:29.541Z,99124.09
2022-11-29T08:53:00.934Z,99115.94
2022-11-29T08:54:32.350Z,99119.53
2022-11-29T08:56:23.638Z,99125.47
2022-11-29T08:57:59.958Z,99118.75
2022-11-29T08:59:31.384Z,99116.69
2022-11-29T09:01:02.844Z,99125.31
2022-11-29T09:02:34.321Z,99121.72
2022-11-29T09:04:05.778Z,99119.66
2022-11-29T09:05:37.187Z,99126.81
2022-11-29T09:07:08.572Z,99122.97
2022-11-29T09:08:40.379Z,99124.72
2022-11-29T09:10:11.789Z,99126.97
2022-11-29T09:11:46.989Z,99123.88
2022-11-29T09:13:20.722Z,99129.50
2022-11-29T09:14:52.119Z,99127.13
2022-11-29T09:16:24.321Z,99123.25
2022-11-29T09:17:55.765Z,99130.09
2022-11-29T09:19:27.517Z,99117.00
2022-11-29T09:20:58.921Z,99127.69
2022-11-29T09:22:30.376Z,99123.84
2022-11-29T09:24:01.969Z,99115.38
2022-11-29T09:25:33.385Z,99111.50
2022-11-29T09:27:04.784Z,99130.53
2022-11-29T09:28:36.207Z,99114.03
2022-11-29T09:30:08.025Z,99124.28
2022-11-29T09:31:39.471Z,99121.16
2022-11-29T09:33:10.913Z,99114.31
2022-11-29T09:34:42.509Z,99119.97
2022-11-29T09:36:14.145Z,99121.44
2022-11-29T09:37:45.531Z,99124.13
2022-11-29T09:39:16.966Z,99123.38
2022-11-29T09:40:50.724Z,99113.91
2022-11-29T09:42:41.990Z,99121.16
2022-11-29T09:44:18.095Z,99118.50
2022-11-29T09:45:50.135Z,99117.44
2022-11-29T09:47:36.550Z,99114.47
2022-11-29T09:49:25.751Z,99111.81
2022-11-29T09:50:57.791Z,99111.50
2022-11-29T09:52:29.176Z,99110.03
2022-11-29T09:54:03.528Z,99116.56
2022-11-29T09:55:38.013Z,99103.63
2022-11-29T09:57:11.018Z,99107.94
2022-11-29T09:58:49.553Z,99117.16
2022-11-29T10:00:21.091Z,99105.44
2022-11-29T10:01:54.522Z,99107.34
2022-11-29T10:03:33.975Z,99102.00
2022-11-29T10:05:09.954Z,99100.97
2022-11-29T10:06:54.606Z,99104.84
2022-11-29T10:08:27.677Z,99113.59
2022-11-29T10:10:19.070Z,99111.38
2022-11-29T10:11:59.687Z,99109.91
2022-11-29T10:13:31.955Z,99109.16
2022-11-29T10:15:17.302Z,99107.66
2022-11-29T10:17:02.592Z,99103.50
2022-11-29T10:18:37.550Z,99101.56
2022-11-29T10:20:16.738Z,99101.56
2022-11-29T10:21:56.138Z,99100.81
2022-11-29T10:23:37.189Z,99098.59
2022-11-29T10:25:08.783Z,99099.78
2022-11-29T10:26:40.478Z,99100.94
2022-11-29T10:28:15.843Z,99098.28
2022-11-29T10:29:47.267Z,99092.94
2022-11-29T10:31:22.807Z,99096.81
2022-11-29T10:32:57.728Z,99099.47
2022-11-29T10:34:29.138Z,99095.31
2022-11-29T10:36:02.216Z,99092.66
2022-11-29T10:37:33.621Z,99093.81
2022-11-29T10:39:11.419Z,99094.56
2022-11-29T10:40:47.115Z,99093.06
2022-11-29T10:42:19.360Z,99091.16
2022-11-29T10:43:50.887Z,99098.00
2022-11-29T10:45:32.665Z,99093.81
2022-11-29T10:47:09.291Z,99083.59
2022-11-29T10:48:42.286Z,99090.88
2022-11-29T10:50:17.485Z,99090.88
2022-11-29T10:51:48.892Z,99090.88
2022-11-29T10:53:24.450Z,99072.59
2022-11-29T10:54:56.470Z,99076.59
2022-11-29T10:56:28.160Z,99084.47
2022-11-29T10:58:08.740Z,99085.22
2022-11-29T10:59:40.127Z,99084.78
2022-11-29T11:01:12.282Z,99083.75
2022-11-29T11:02:43.691Z,99085.22
2022-11-29T11:04:15.692Z,99085.69
2022-11-29T11:06:00.068Z,99089.09
2022-11-29T11:07:35.049Z,99082.25
2022-11-29T11:09:21.407Z,99080.78
2022-11-29T11:10:58.614Z,99086.13
2022-11-29T11:12:33.438Z,99088.78
2022-11-29T11:14:25.094Z,99089.22
2022-11-29T11:15:57.386Z,99093.84
2022-11-29T11:17:29.489Z,99094.56
2022-11-29T11:19:01.149Z,99092.63
2022-11-29T11:20:36.321Z,99087.75
2022-11-29T11:22:10.385Z,99090.44
2022-11-29T11:23:57.702Z,99093.09
2022-11-29T11:25:35.194Z,99088.94
2022-11-29T11:27:06.620Z,99089.69
2022-11-29T11:28:48.466Z,99089.69
2022-11-29T11:30:23.448Z,99082.09
2022-11-29T11:31:55.791Z,99096.19
2022-11-29T11:33:28.159Z,99093.53
2022-11-29T11:35:00.199Z,99085.22
2022-11-29T11:36:31.570Z,99096.94
2022-11-29T11:49:14.353Z,99090.56
2022-11-29T11:50:49.817Z,99088.66
2022-11-29T11:52:24.890Z,99094.72
2022-11-29T11:53:56.310Z,99094.72
2022-11-29T11:55:50.978Z,99087.44
2022-11-29T11:57:22.454Z,99090.13
2022-11-29T11:58:54.571Z,99100.06
2022-11-29T12:01:02.236Z,99090.13
2022-11-29T12:02:40.064Z,99093.53
2022-11-29T12:04:12.497Z,99087.44
2022-11-29T12:05:46.330Z,99100.38
2022-11-29T12:07:29.617Z,99090.88
2022-11-29T12:09:28.362Z,99087.75
2022-11-29T12:11:06.852Z,99090.44
2022-11-29T12:12:40.138Z,99085.97
2022-11-29T12:14:15.736Z,99090.88
2022-11-29T12:15:47.323Z,99085.50
2022-11-29T12:17:44.578Z,99084.03
2022-11-29T12:19:20.376Z,99096.19
2022-11-29T12:21:21.181Z,99086.25
2022-11-29T12:23:11.485Z,99085.50
2022-11-29T12:24:44.886Z,99089.38
2022-11-29T12:26:48.573Z,99085.50
2022-11-29T12:28:18.596Z,99085.50
2022-11-29T12:29:51.598Z,99079.44
2022-11-29T12:31:29.131Z,99082.84
2022-11-29T12:33:03.416Z,99080.16
2022-11-29T12:34:45.288Z,99077.50
2022-11-29T12:36:16.927Z,99081.34
2022-11-29T12:37:50.794Z,99090.88
2022-11-29T12:39:34.980Z,99084.03
2022-11-29T12:41:24.495Z,99078.69
2022-11-29T12:43:03.855Z,99084.03
2022-11-29T12:44:44.660Z,99080.16
2022-11-29T12:46:22.389Z,99077.50
2022-11-29T12:47:53.842Z,99080.16
2022-11-29T12:49:37.978Z,99075.56
2022-11-29T12:51:27.326Z,99087.44
2022-11-29T12:53:37.328Z,99084.34
2022-11-29T12:55:16.149Z,99082.84
2022-11-29T12:56:50.607Z,99084.78
2022-11-29T12:58:27.706Z,99085.50
2022-11-29T13:00:04.935Z,99090.88
2022-11-29T13:01:54.956Z,99090.13
2022-11-29T13:03:27.598Z,99089.38
2022-11-29T13:05:03.689Z,99088.94
2022-11-29T13:06:48.658Z,99091.59
2022-11-29T13:08:43.328Z,99090.44
2022-11-29T13:10:20.752Z,99088.50
2022-11-29T13:11:55.956Z,99096.53
2022-11-29T13:13:33.292Z,99093.84
2022-11-29T13:15:18.318Z,99093.84
2022-11-29T13:17:02.694Z,99100.66
2022-11-29T13:18:52.595Z,99099.19
2022-11-29T13:20:30.245Z,99100.38
2022-11-29T13:22:04.524Z,99100.38
2022-11-29T13:24:07.269Z,99100.81
2022-11-29T13:25:33.770Z,99106.91
2022-11-29T13:27:05.218Z,99099.34
2022-11-29T13:28:37.919Z,99100.81
2022-11-29T13:30:13.364Z,99100.06
2022-11-29T13:31:45.497Z,99102.00
2022-11-29T13:33:21.636Z,99104.69
2022-11-29T13:34:53.028Z,99101.25
2022-11-29T13:36:44.694Z,99107.34
2022-11-29T13:38:22.846Z,99118.75
2022-11-29T13:39:56.950Z,99106.59
2022-11-29T13:41:34.459Z,99120.72
2022-11-29T13:43:15.485Z,99119.50
2022-11-29T13:44:52.306Z,99110.75
2022-11-29T13:46:26.764Z,99118.03
2022-11-29T13:47:58.857Z,99112.69
2022-11-29T13:49:49.144Z,99103.94
2022-11-29T13:51:21.509Z,99120.72
2022-11-29T13:52:52.930Z,99122.19
2022-11-29T13:54:31.009Z,99114.16
2022-11-29T13:56:02.442Z,99113.00
2022-11-29T13:58:14.801Z,99112.56
2022-11-29T13:59:45.875Z,99115.94
2022-11-29T14:01:18.835Z,99117.44
2022-11-29T14:02:50.314Z,99121.16
2022-11-29T14:04:24.617Z,99130.66
2022-11-29T14:06:01.994Z,99117.59
2022-11-29T14:07:33.450Z,99129.75
2022-11-29T14:09:20.657Z,99132.00
2022-11-29T14:10:55.240Z,99126.94
2022-11-29T14:12:33.897Z,99125.00
2022-11-29T14:14:07.252Z,99123.81
2022-11-29T14:15:38.742Z,99126.81
2022-11-29T14:17:48.959Z,99121.03
2022-11-29T14:19:20.339Z,99123.25
2022-11-29T14:20:55.269Z,99125.47
2022-11-29T14:22:26.710Z,99125.03
2022-11-29T14:24:18.064Z,99124.28
2022-11-29T14:25:58.702Z,99126.69
2022-11-29T14:27:30.123Z,99132.75
2022-11-29T14:29:01.529Z,99125.19
2022-11-29T14:30:40.304Z,99127.13
2022-11-29T14:32:20.449Z,99127.56
2022-11-29T14:33:54.901Z,99138.25
2022-11-29T14:35:30.661Z,99128.00
2022-11-29T14:37:14.427Z,99134.50
2022-11-29T14:39:04.794Z,99127.69
2022-11-29T14:40:42.742Z,99133.47
2022-11-29T14:42:15.190Z,99130.06
2022-11-29T14:43:46.644Z,99137.78
2022-11-29T14:45:36.311Z,99142.41
2022-11-29T14:47:13.730Z,99143.56
2022-11-29T14:48:45.962Z,99143.25
2022-11-29T14:50:30.972Z,99137.91
2022-11-29T14:52:06.335Z,99141.78
2022-11-29T14:53:37.834Z,99145.66
2022-11-29T14:55:27.954Z,99138.38
2022-11-29T14:56:59.366Z,99144.91
2022-11-29T14:58:30.762Z,99154.84
2022-11-29T15:00:02.298Z,99148.75
2022-11-29T15:01:33.710Z,99148.00
2022-11-29T15:03:40.929Z,99151.16
2022-11-29T15:05:17.054Z,99146.97
2022-11-29T15:06:53.008Z,99157.66
2022-11-29T15:08:36.928Z,99152.78
2022-11-29T15:10:11.909Z,99152.03
2022-11-29T15:11:47.103Z,99156.63
2022-11-29T15:13:20.234Z,99151.72
2022-11-29T15:14:51.633Z,99158.56
2022-11-29T15:16:25.880Z,99162.41
2022-11-29T15:18:02.306Z,99162.41
2022-11-29T15:19:48.378Z,99168.22
2022-11-29T15:21:20.461Z,99164.78
2022-11-29T15:22:52.633Z,99163.31
2022-11-29T15:24:28.161Z,99157.97
2022-11-29T15:26:00.146Z,99162.56
2022-11-29T15:27:33.404Z,99156.47
2022-11-29T15:29:18.465Z,99157.69
2022-11-29T15:30:49.911Z,99166.88
2022-11-29T15:32:25.185Z,99160.78
2022-11-29T15:33:56.684Z,99172.22
2022-11-29T15:35:28.258Z,99168.03
2022-11-29T15:36:59.880Z,99165.38
2022-11-29T15:38:31.274Z,99163.88
2022-11-29T15:40:02.677Z,99164.63
2022-11-29T15:41:34.411Z,99167.28
2022-11-29T15:43:20.231Z,99165.81
2022-11-29T15:44:51.647Z,99165.81
2022-11-29T15:46:29.439Z,99162.41
2022-11-29T15:48:17.150Z,99165.81
2022-11-29T15:49:49.250Z,99159.75
2022-11-29T15:51:36.362Z,99160.47
2022-11-29T15:53:08.141Z,99165.81
2022-11-29T15:54:41.990Z,99168.47
2022-11-29T15:56:16.643Z,99165.09
2022-11-29T15:57:48.713Z,99169.22
2022-11-29T15:59:20.315Z,99173.09
2022-11-29T16:00:54.689Z,99175.78
2022-11-29T16:02:27.559Z,99170.44
2022-11-29T16:03:59.119Z,99176.50
2022-11-29T16:05:36.980Z,99180.66
2022-11-29T16:07:08.645Z,99173.81
2022-11-29T16:08:41.053Z,99173.38
2022-11-29T16:10:13.353Z,99174.88
2022-11-29T16:11:44.828Z,99174.88
2022-11-29T16:13:36.518Z,99179.75
2022-11-29T16:15:23.484Z,99178.59
2022-11-29T16:16:55.356Z,99184.25
2022-11-29T16:18:28.835Z,99181.13
2022-11-29T16:20:15.737Z,99184.84
2022-11-29T16:21:57.769Z,99189.72
2022-11-29T16:23:32.895Z,99184.25
2022-11-29T16:25:06.312Z,99190.66
2022-11-29T16:26:39.174Z,99191.22
2022-11-29T16:28:11.840Z,99188.13
2022-11-29T16:29:46.296Z,99187.69
2022-11-29T16:31:18.746Z,99192.56
2022-11-29T16:32:58.162Z,99190.22
2022-11-29T16:34:30.231Z,99184.88
2022-11-29T16:36:15.337Z,99192.47
2022-11-29T16:37:47.041Z,99196.91
2022-11-29T16:39:24.382Z,99186.22
2022-11-29T16:41:14.271Z,99196.47
2022-11-29T16:42:47.377Z,99199.00
2022-11-29T16:44:53.517Z,99199.75
2022-11-29T16:46:25.191Z,99202.00
2022-11-29T16:47:56.981Z,99200.19
2022-11-29T16:49:31.885Z,99202.28
2022-11-29T16:51:09.838Z,99207.19
2022-11-29T16:52:41.890Z,99208.66
2022-11-29T16:54:23.754Z,99210.16
2022-11-29T16:55:56.602Z,99209.72
2022-11-29T16:57:28.688Z,99219.19
2022-11-29T16:59:20.910Z,99219.19
2022-11-29T17:00:52.127Z,99216.09
2022-11-29T17:02:23.821Z,99210.00
2022-11-29T17:03:58.714Z,99218.34
2022-11-29T17:05:30.124Z,99223.69
2022-11-29T17:07:01.616Z,99225.91
2022-11-29T17:08:33.334Z,99230.06
2022-11-29T17:10:05.560Z,99225.00
2022-11-29T17:11:36.983Z,99225.75
2022-11-29T17:13:11.910Z,99232.59
2022-11-29T17:14:46.275Z,99234.09
2022-11-29T17:16:19.204Z,99232.88
2022-11-29T17:17:53.534Z,99231.69
2022-11-29T17:19:25.193Z,99237.78
2022-11-29T17:20:57.312Z,99233.19
2022-11-29T17:22:29.092Z,99233.94
2022-11-29T17:24:00.933Z,99241.94
2022-11-29T17:25:32.611Z,99231.25
2022-11-29T17:27:04.235Z,99242.69
2022-11-29T17:28:35.750Z,99236.13
2022-11-29T17:30:07.985Z,99238.81
2022-11-29T17:31:39.824Z,99242.25
2022-11-29T17:33:11.359Z,99237.63
2022-11-29T17:34:43.280Z,99243.72
2022-11-29T17:36:17.243Z,99244.16
2022-11-29T17:37:48.832Z,99241.50
2022-11-29T17:39:20.656Z,99236.88
2022-11-29T17:40:52.210Z,99240.31
2022-11-29T17:42:23.705Z,99246.41
2022-11-29T17:43:55.719Z,99253.25
2022-11-29T17:45:28.825Z,99251.28
2022-11-29T17:47:00.484Z,99244.75
2022-11-29T17:48:33.706Z,99249.81
2022-11-29T17:50:05.901Z,99250.56
2022-11-29T17:51:53.778Z,99249.09
2022-11-29T17:53:25.753Z,99254.88
2022-11-29T17:54:57.778Z,99254.13
2022-11-29T17:56:29.351Z,99259.94
2022-11-29T17:58:00.802Z,99254.25
2022-11-29T17:59:32.591Z,99258.16
2022-11-29T18:01:11.313Z,99264.69
2022-11-29T18:02:46.270Z,99267.03
2022-11-29T18:04:18.519Z,99262.16
2022-11-29T18:05:51.334Z,99268.69
2022-11-29T18:07:23.076Z,99266.00
2022-11-29T18:08:56.428Z,99270.31
2022-11-29T18:10:29.301Z,99271.50
2022-11-29T18:12:01.665Z,99274.59
2022-11-29T18:13:33.614Z,99266.28
2022-11-29T18:15:05.818Z,99277.00
2022-11-29T18:16:37.863Z,99267.94
2022-11-29T18:18:09.771Z,99266.16
2022-11-29T18:19:42.663Z,99264.66
2022-11-29T18:21:14.745Z,99265.84
2022-11-29T18:22:46.536Z,99259.00
2022-11-29T18:24:18.312Z,99267.47
2022-11-29T18:26:01.806Z,99269.41
2022-11-29T18:27:33.753Z,99263.75
2022-11-29T18:29:05.897Z,99265.69
2022-11-29T18:30:37.865Z,99268.81
2022-11-29T18:32:10.015Z,99272.66
2022-11-29T18:33:42.087Z,99269.97
2022-11-29T18:35:14.134Z,99273.09
2022-11-29T18:36:46.704Z,99272.75
2022-11-29T18:38:18.564Z,99275.91
2022-11-29T18:39:50.072Z,99266.38
2022-11-29T18:41:22.010Z,99273.22
2022-11-29T18:42:55.219Z,99277.06
2022-11-29T18:44:27.456Z,99276.75
2022-11-29T18:45:59.602Z,99280.63
2022-11-29T18:47:31.802Z,99271.56
2022-11-29T18:49:04.908Z,99282.56
2022-11-29T18:50:37.113Z,99266.94
2022-11-29T18:52:08.924Z,99276.91
2022-11-29T18:53:41.220Z,99269.34
2022-11-29T18:55:14.343Z,99273.94
2022-11-29T18:56:46.273Z,99275.88
2022-11-29T18:58:18.760Z,99280.47
2022-11-29T18:59:51.561Z,99277.78
2022-11-29T19:01:28.905Z,99282.84
2022-11-29T19:03:01.725Z,99294.72
2022-11-29T19:04:33.426Z,99285.94
2022-11-29T19:06:06.262Z,99290.53
2022-11-29T19:07:40.012Z,99291.75
2022-11-29T19:09:13.132Z,99285.66
2022-11-29T19:10:45.127Z,99285.66
